Date,TemperatureHighF,TemperatureAvgF,TemperatureLowF,DewpointHighF,DewpointAvgF,DewpointLowF,HumidityHigh,HumidityAvg,HumidityLow,PressureMaxIn,PressureMinIn,WindSpeedMaxMPH,WindSpeedAvgMPH,GustSpeedMaxMPH,PrecipitationSumIn
2013-6-1,68.6,64.6,61.1,63.8,61.8,59.9,97,91,84,29.99,29.92,13,9,37,0.00
2013-6-2,66.6,64.0,62.0,63.9,62.3,60.6,97,95,90,29.94,29.84,13,10,37,0.00
2013-6-3,65.2,62.9,61.6,64.9,62.6,61.3,100,99,97,29.86,29.78,14,9,37,1.30
2013-6-4,68.4,61.7,55.2,63.1,48.9,42.2,100,65,44,30.05,29.77,11,6,37,0.00
2013-6-5,67.5,60.1,52.0,52.1,48.7,44.9,86,67,47,30.17,30.05,10,4,37,0.00
2013-6-6,67.7,60.7,56.4,57.4,52.9,47.3,87,76,48,30.19,30.08,12,6,37,0.00
2013-6-7,62.8,56.2,54.2,62.8,55.2,52.5,100,96,87,30.09,29.75,20,9,37,1.40
2013-6-8,67.4,62.8,56.6,63.6,61.4,56.3,100,95,82,29.98,29.55,20,12,37,0.04
2013-6-9,74.8,67.1,59.1,63.6,60.5,54.7,98,80,51,30.14,29.98,10,4,37,0.00
2013-6-10,68.0,61.9,55.9,59.5,57.7,55.1,98,86,74,30.18,30.00,11,5,37,0.46
2013-6-11,64.9,61.5,55.4,64.1,61.1,54.8,99,99,95,30.00,29.52,14,8,37,1.57
2013-6-12,68.3,60.9,54.1,59.3,56.3,53.7,99,86,64,29.75,29.53,14,7,37,0.00
2013-6-13,67.0,58.5,53.7,56.8,54.1,52.7,97,86,66,29.79,29.59,13,5,37,0.19
2013-6-14,61.6,54.9,50.8,55.5,52.4,50.5,99,91,77,29.73,29.51,18,9,37,0.62
2013-6-15,73.5,64.1,55.1,59.8,53.5,43.3,96,72,38,29.94,29.72,10,5,37,0.00
2013-6-16,70.0,64.4,60.9,63.0,60.8,58.1,97,89,70,29.94,29.76,11,6,37,0.00
2013-6-17,71.8,66.2,62.0,65.9,62.9,59.9,96,89,80,29.90,29.77,11,5,37,0.00
2013-6-18,76.3,65.6,59.9,66.5,62.0,58.6,98,89,67,29.91,29.84,10,4,37,0.01
2013-6-19,69.3,62.5,56.1,59.5,54.2,49.8,98,76,52,30.14,29.82,12,7,37,0.05
2013-6-20,69.9,64.3,57.3,59.9,55.8,51.9,91,75,60,30.27,30.14,10,5,37,0.00
2013-6-21,68.8,65.5,62.0,60.4,57.2,53.5,82,75,66,30.27,30.21,12,8,37,0.00
2013-6-22,73.7,66.9,63.9,63.9,61.0,56.4,95,82,59,30.23,30.15,10,7,37,0.00
2013-6-23,71.2,67.5,64.1,68.0,65.0,63.2,99,92,84,30.17,30.05,13,9,37,0.00
2013-6-24,80.4,72.7,66.8,73.3,69.4,65.8,99,90,74,30.05,29.86,14,8,37,0.01
2013-6-25,82.9,72.7,68.3,70.5,67.8,65.3,96,85,60,29.89,29.74,12,6,37,0.00
2013-6-26,82.5,74.1,67.7,73.3,70.0,66.8,98,87,71,29.82,29.71,12,4,37,0.02
2013-6-27,69.3,66.1,63.3,67.3,65.1,63.0,99,97,91,29.83,29.74,8,4,37,0.00
2013-6-28,68.9,66.9,64.0,68.7,66.6,63.7,100,99,99,29.74,29.56,20,11,37,0.36
2013-6-29,68.6,67.2,64.0,68.6,67.1,64.0,100,100,98,29.75,29.55,12,9,37,0.22
2013-6-30,71.6,68.0,65.5,70.1,67.6,65.2,100,98,93,29.97,29.75,10,6,37,0.02